sensor_id;sensor_type;location;lat;lon;timestamp;P1;durP1;ratioP1;P2;durP2;ratioP2
38843;SDS011;24596;48.080;8.362;2023-03-23T00:01:00;5.82;;;2.35;;
38843;SDS011;24596;48.080;8.362;2023-03-23T00:03:26;7.65;;;1.88;;
38843;SDS011;24596;48.080;8.362;2023-03-23T00:05:54;4.20;;;2.05;;
38843;SDS011;24596;48.080;8.362;2023-03-23T00:08:24;6.03;;;2.42;;
38843;SDS011;24596;48.080;8.362;2023-03-23T00:10:51;4.78;;;2.10;;
38843;SDS011;24596;48.080;8.362;2023-03-23T00:13:17;5.50;;;1.80;;
38843;SDS011;24596;48.080;8.362;2023-03-23T00:15:44;5.72;;;1.73;;
38843;SDS011;24596;48.080;8.362;2023-03-23T00:18:09;3.75;;;1.63;;
38843;SDS011;24596;48.080;8.362;2023-03-23T00:20:45;8.73;;;2.25;;
38843;SDS011;24596;48.080;8.362;2023-03-23T00:23:14;5.00;;;2.03;;
38843;SDS011;24596;48.080;8.362;2023-03-23T00:25:44;6.45;;;2.00;;
38843;SDS011;24596;48.080;8.362;2023-03-23T00:28:09;5.95;;;1.92;;
38843;SDS011;24596;48.080;8.362;2023-03-23T00:30:37;6.15;;;1.52;;
38843;SDS011;24596;48.080;8.362;2023-03-23T00:33:03;4.22;;;1.60;;
38843;SDS011;24596;48.080;8.362;2023-03-23T00:35:28;3.90;;;1.80;;
38843;SDS011;24596;48.080;8.362;2023-03-23T00:37:55;6.45;;;2.00;;
38843;SDS011;24596;48.080;8.362;2023-03-23T00:40:21;3.97;;;1.77;;
38843;SDS011;24596;48.080;8.362;2023-03-23T00:42:46;3.75;;;1.73;;
38843;SDS011;24596;48.080;8.362;2023-03-23T00:45:13;4.07;;;1.65;;
38843;SDS011;24596;48.080;8.362;2023-03-23T00:47:40;5.50;;;2.03;;
38843;SDS011;24596;48.080;8.362;2023-03-23T00:50:06;3.53;;;1.80;;
38843;SDS011;24596;48.080;8.362;2023-03-23T00:52:32;5.57;;;1.90;;
38843;SDS011;24596;48.080;8.362;2023-03-23T00:54:57;4.28;;;1.50;;
38843;SDS011;24596;48.080;8.362;2023-03-23T00:57:23;4.05;;;1.45;;
38843;SDS011;24596;48.080;8.362;2023-03-23T00:59:50;4.38;;;1.30;;
38843;SDS011;24596;48.080;8.362;2023-03-23T01:02:15;3.10;;;1.50;;
38843;SDS011;24596;48.080;8.362;2023-03-23T01:04:41;6.55;;;2.20;;
38843;SDS011;24596;48.080;8.362;2023-03-23T01:07:09;7.57;;;3.67;;
38843;SDS011;24596;48.080;8.362;2023-03-23T01:09:37;4.72;;;1.70;;
38843;SDS011;24596;48.080;8.362;2023-03-23T01:12:04;6.22;;;1.73;;
38843;SDS011;24596;48.080;8.362;2023-03-23T01:14:30;5.90;;;2.40;;
38843;SDS011;24596;48.080;8.362;2023-03-23T01:16:55;4.25;;;1.52;;
38843;SDS011;24596;48.080;8.362;2023-03-23T01:19:21;3.80;;;1.30;;
38843;SDS011;24596;48.080;8.362;2023-03-23T01:21:47;5.45;;;1.63;;
38843;SDS011;24596;48.080;8.362;2023-03-23T01:24:14;4.13;;;1.65;;
38843;SDS011;24596;48.080;8.362;2023-03-23T01:26:40;4.90;;;1.55;;
38843;SDS011;24596;48.080;8.362;2023-03-23T01:29:05;4.00;;;1.13;;
38843;SDS011;24596;48.080;8.362;2023-03-23T01:31:30;5.38;;;1.50;;
38843;SDS011;24596;48.080;8.362;2023-03-23T01:33:56;4.53;;;1.48;;
38843;SDS011;24596;48.080;8.362;2023-03-23T01:36:26;4.75;;;1.40;;
38843;SDS011;24596;48.080;8.362;2023-03-23T01:38:53;4.65;;;1.48;;
38843;SDS011;24596;48.080;8.362;2023-03-23T01:41:19;4.40;;;1.60;;
38843;SDS011;24596;48.080;8.362;2023-03-23T01:46:48;2.55;;;1.20;;
38843;SDS011;24596;48.080;8.362;2023-03-23T01:49:17;2.60;;;0.90;;
38843;SDS011;24596;48.080;8.362;2023-03-23T01:51:48;2.65;;;1.10;;
38843;SDS011;24596;48.080;8.362;2023-03-23T01:54:15;4.10;;;1.42;;
38843;SDS011;24596;48.080;8.362;2023-03-23T01:56:48;2.78;;;1.20;;
38843;SDS011;24596;48.080;8.362;2023-03-23T01:59:15;4.05;;;1.30;;
38843;SDS011;24596;48.080;8.362;2023-03-23T02:01:40;2.95;;;1.17;;
38843;SDS011;24596;48.080;8.362;2023-03-23T02:04:09;4.88;;;1.40;;
38843;SDS011;24596;48.080;8.362;2023-03-23T02:06:35;2.78;;;1.10;;
38843;SDS011;24596;48.080;8.362;2023-03-23T02:09:00;3.35;;;1.35;;
38843;SDS011;24596;48.080;8.362;2023-03-23T02:11:26;3.65;;;1.10;;
38843;SDS011;24596;48.080;8.362;2023-03-23T02:13:51;3.00;;;1.13;;
38843;SDS011;24596;48.080;8.362;2023-03-23T02:24:20;5.80;;;2.20;;
38843;SDS011;24596;48.080;8.362;2023-03-23T02:27:01;3.75;;;1.10;;
38843;SDS011;24596;48.080;8.362;2023-03-23T02:34:34;2.85;;;1.08;;
38843;SDS011;24596;48.080;8.362;2023-03-23T02:37:04;4.15;;;1.40;;
38843;SDS011;24596;48.080;8.362;2023-03-23T02:39:33;4.90;;;1.30;;
38843;SDS011;24596;48.080;8.362;2023-03-23T02:42:05;3.33;;;1.40;;
38843;SDS011;24596;48.080;8.362;2023-03-23T02:44:31;3.92;;;1.30;;
38843;SDS011;24596;48.080;8.362;2023-03-23T02:46:59;4.38;;;1.13;;
38843;SDS011;24596;48.080;8.362;2023-03-23T02:49:25;3.58;;;1.02;;
38843;SDS011;24596;48.080;8.362;2023-03-23T02:51:51;3.83;;;1.50;;
38843;SDS011;24596;48.080;8.362;2023-03-23T02:54:17;2.50;;;1.10;;
38843;SDS011;24596;48.080;8.362;2023-03-23T02:56:43;3.60;;;1.02;;
38843;SDS011;24596;48.080;8.362;2023-03-23T02:59:08;3.10;;;1.30;;
38843;SDS011;24596;48.080;8.362;2023-03-23T03:04:01;2.97;;;1.00;;
38843;SDS011;24596;48.080;8.362;2023-03-23T03:06:41;3.10;;;0.95;;
38843;SDS011;24596;48.080;8.362;2023-03-23T03:11:37;6.18;;;1.17;;
38843;SDS011;24596;48.080;8.362;2023-03-23T03:14:04;2.47;;;0.88;;
38843;SDS011;24596;48.080;8.362;2023-03-23T03:16:38;4.55;;;1.10;;
38843;SDS011;24596;48.080;8.362;2023-03-23T03:19:06;3.30;;;1.10;;
38843;SDS011;24596;48.080;8.362;2023-03-23T03:21:34;3.47;;;1.10;;
38843;SDS011;24596;48.080;8.362;2023-03-23T03:24:01;2.33;;;1.00;;
38843;SDS011;24596;48.080;8.362;2023-03-23T03:26:28;3.85;;;1.40;;
38843;SDS011;24596;48.080;8.362;2023-03-23T03:28:54;2.47;;;1.00;;
38843;SDS011;24596;48.080;8.362;2023-03-23T03:31:21;2.70;;;1.10;;
38843;SDS011;24596;48.080;8.362;2023-03-23T03:33:46;3.35;;;1.05;;
38843;SDS011;24596;48.080;8.362;2023-03-23T03:36:18;2.88;;;1.05;;
38843;SDS011;24596;48.080;8.362;2023-03-23T03:38:45;5.65;;;1.67;;
38843;SDS011;24596;48.080;8.362;2023-03-23T03:41:11;2.83;;;1.15;;
38843;SDS011;24596;48.080;8.362;2023-03-23T03:43:37;4.15;;;1.23;;
38843;SDS011;24596;48.080;8.362;2023-03-23T03:46:02;2.22;;;0.98;;
38843;SDS011;24596;48.080;8.362;2023-03-23T03:48:27;3.47;;;1.00;;
38843;SDS011;24596;48.080;8.362;2023-03-23T03:50:53;4.63;;;1.05;;
38843;SDS011;24596;48.080;8.362;2023-03-23T03:53:21;2.25;;;0.95;;
38843;SDS011;24596;48.080;8.362;2023-03-23T03:55:46;1.67;;;0.93;;
38843;SDS011;24596;48.080;8.362;2023-03-23T03:58:13;3.92;;;1.10;;
38843;SDS011;24596;48.080;8.362;2023-03-23T04:00:39;4.47;;;1.15;;
38843;SDS011;24596;48.080;8.362;2023-03-23T04:03:04;3.10;;;1.10;;
38843;SDS011;24596;48.080;8.362;2023-03-23T04:05:30;3.03;;;1.10;;
38843;SDS011;24596;48.080;8.362;2023-03-23T04:07:55;3.22;;;1.40;;
38843;SDS011;24596;48.080;8.362;2023-03-23T04:10:26;5.18;;;1.30;;
38843;SDS011;24596;48.080;8.362;2023-03-23T04:12:52;2.97;;;1.13;;
38843;SDS011;24596;48.080;8.362;2023-03-23T04:15:17;4.88;;;1.00;;
38843;SDS011;24596;48.080;8.362;2023-03-23T04:17:42;2.03;;;1.00;;
38843;SDS011;24596;48.080;8.362;2023-03-23T04:20:08;2.58;;;1.02;;
38843;SDS011;24596;48.080;8.362;2023-03-23T04:22:43;2.83;;;1.30;;
38843;SDS011;24596;48.080;8.362;2023-03-23T04:25:09;3.30;;;1.30;;
38843;SDS011;24596;48.080;8.362;2023-03-23T04:27:36;5.65;;;1.33;;
38843;SDS011;24596;48.080;8.362;2023-03-23T04:30:01;2.97;;;1.23;;
38843;SDS011;24596;48.080;8.362;2023-03-23T04:32:27;4.35;;;1.40;;
38843;SDS011;24596;48.080;8.362;2023-03-23T04:34:56;3.20;;;1.38;;
38843;SDS011;24596;48.080;8.362;2023-03-23T04:37:23;5.57;;;1.33;;
38843;SDS011;24596;48.080;8.362;2023-03-23T04:39:51;3.63;;;1.25;;
38843;SDS011;24596;48.080;8.362;2023-03-23T04:42:24;3.35;;;1.20;;
38843;SDS011;24596;48.080;8.362;2023-03-23T04:44:50;2.35;;;1.10;;
38843;SDS011;24596;48.080;8.362;2023-03-23T04:47:19;5.20;;;1.42;;
38843;SDS011;24596;48.080;8.362;2023-03-23T04:49:44;5.53;;;1.35;;
38843;SDS011;24596;48.080;8.362;2023-03-23T04:52:09;2.83;;;1.25;;
38843;SDS011;24596;48.080;8.362;2023-03-23T04:54:35;3.38;;;1.35;;
38843;SDS011;24596;48.080;8.362;2023-03-23T04:57:00;3.40;;;1.40;;
38843;SDS011;24596;48.080;8.362;2023-03-23T04:59:25;3.67;;;1.38;;
38843;SDS011;24596;48.080;8.362;2023-03-23T05:01:52;4.75;;;1.80;;
38843;SDS011;24596;48.080;8.362;2023-03-23T05:04:17;6.43;;;1.65;;
38843;SDS011;24596;48.080;8.362;2023-03-23T05:06:43;3.65;;;1.30;;
38843;SDS011;24596;48.080;8.362;2023-03-23T05:09:09;3.75;;;1.52;;
38843;SDS011;24596;48.080;8.362;2023-03-23T05:11:34;5.15;;;1.42;;
38843;SDS011;24596;48.080;8.362;2023-03-23T05:14:00;4.93;;;1.50;;
38843;SDS011;24596;48.080;8.362;2023-03-23T05:16:25;4.15;;;1.42;;
38843;SDS011;24596;48.080;8.362;2023-03-23T05:18:50;2.78;;;1.08;;
38843;SDS011;24596;48.080;8.362;2023-03-23T05:21:15;5.70;;;1.33;;
38843;SDS011;24596;48.080;8.362;2023-03-23T05:23:40;5.70;;;1.80;;
38843;SDS011;24596;48.080;8.362;2023-03-23T05:26:07;3.55;;;1.30;;
38843;SDS011;24596;48.080;8.362;2023-03-23T05:28:32;4.28;;;1.42;;
38843;SDS011;24596;48.080;8.362;2023-03-23T05:30:57;4.65;;;2.05;;
38843;SDS011;24596;48.080;8.362;2023-03-23T05:33:23;4.57;;;1.88;;
38843;SDS011;24596;48.080;8.362;2023-03-23T05:35:48;9.57;;;4.45;;
38843;SDS011;24596;48.080;8.362;2023-03-23T05:38:14;6.40;;;3.35;;
38843;SDS011;24596;48.080;8.362;2023-03-23T05:40:39;6.18;;;1.83;;
38843;SDS011;24596;48.080;8.362;2023-03-23T05:43:06;4.22;;;1.88;;
38843;SDS011;24596;48.080;8.362;2023-03-23T05:45:31;7.47;;;1.60;;
38843;SDS011;24596;48.080;8.362;2023-03-23T05:47:56;8.70;;;1.52;;
38843;SDS011;24596;48.080;8.362;2023-03-23T05:50:22;4.60;;;1.65;;
38843;SDS011;24596;48.080;8.362;2023-03-23T05:52:47;7.65;;;2.10;;
38843;SDS011;24596;48.080;8.362;2023-03-23T05:55:13;4.75;;;1.60;;
38843;SDS011;24596;48.080;8.362;2023-03-23T05:57:39;4.13;;;1.50;;
38843;SDS011;24596;48.080;8.362;2023-03-23T06:00:05;7.63;;;1.80;;
38843;SDS011;24596;48.080;8.362;2023-03-23T06:02:48;7.85;;;2.20;;
38843;SDS011;24596;48.080;8.362;2023-03-23T06:05:13;5.93;;;1.77;;
38843;SDS011;24596;48.080;8.362;2023-03-23T06:07:38;5.60;;;2.05;;
38843;SDS011;24596;48.080;8.362;2023-03-23T06:10:07;5.20;;;1.90;;
38843;SDS011;24596;48.080;8.362;2023-03-23T06:12:33;6.88;;;1.90;;
38843;SDS011;24596;48.080;8.362;2023-03-23T06:14:59;4.82;;;1.88;;
38843;SDS011;24596;48.080;8.362;2023-03-23T06:17:24;7.03;;;2.22;;
38843;SDS011;24596;48.080;8.362;2023-03-23T06:19:50;4.13;;;2.05;;
38843;SDS011;24596;48.080;8.362;2023-03-23T06:22:15;6.28;;;2.38;;
38843;SDS011;24596;48.080;8.362;2023-03-23T06:24:41;5.40;;;2.00;;
38843;SDS011;24596;48.080;8.362;2023-03-23T06:27:06;5.32;;;2.15;;
38843;SDS011;24596;48.080;8.362;2023-03-23T06:29:32;5.88;;;2.30;;
38843;SDS011;24596;48.080;8.362;2023-03-23T06:31:59;4.80;;;1.85;;
38843;SDS011;24596;48.080;8.362;2023-03-23T06:34:24;6.47;;;1.92;;
38843;SDS011;24596;48.080;8.362;2023-03-23T06:36:50;4.38;;;1.73;;
38843;SDS011;24596;48.080;8.362;2023-03-23T06:39:15;7.35;;;2.28;;
38843;SDS011;24596;48.080;8.362;2023-03-23T06:41:40;4.47;;;2.00;;
38843;SDS011;24596;48.080;8.362;2023-03-23T06:44:05;5.22;;;2.03;;
38843;SDS011;24596;48.080;8.362;2023-03-23T06:46:31;8.00;;;2.20;;
38843;SDS011;24596;48.080;8.362;2023-03-23T06:48:56;4.40;;;1.77;;
38843;SDS011;24596;48.080;8.362;2023-03-23T06:51:22;5.72;;;2.10;;
38843;SDS011;24596;48.080;8.362;2023-03-23T06:53:47;6.60;;;2.10;;
38843;SDS011;24596;48.080;8.362;2023-03-23T06:56:12;4.85;;;1.88;;
38843;SDS011;24596;48.080;8.362;2023-03-23T06:58:38;4.57;;;2.20;;
38843;SDS011;24596;48.080;8.362;2023-03-23T07:01:03;4.88;;;1.95;;
38843;SDS011;24596;48.080;8.362;2023-03-23T07:03:29;4.18;;;1.77;;
38843;SDS011;24596;48.080;8.362;2023-03-23T07:05:56;4.43;;;1.70;;
38843;SDS011;24596;48.080;8.362;2023-03-23T07:08:21;4.63;;;1.95;;
38843;SDS011;24596;48.080;8.362;2023-03-23T07:10:46;7.18;;;2.15;;
38843;SDS011;24596;48.080;8.362;2023-03-23T07:13:12;5.03;;;2.42;;
38843;SDS011;24596;48.080;8.362;2023-03-23T07:15:38;4.35;;;1.67;;
38843;SDS011;24596;48.080;8.362;2023-03-23T07:18:03;5.70;;;1.85;;
38843;SDS011;24596;48.080;8.362;2023-03-23T07:20:28;6.15;;;2.00;;
38843;SDS011;24596;48.080;8.362;2023-03-23T07:22:53;6.38;;;1.80;;
38843;SDS011;24596;48.080;8.362;2023-03-23T07:25:19;4.38;;;1.75;;
38843;SDS011;24596;48.080;8.362;2023-03-23T07:27:45;5.38;;;2.20;;
38843;SDS011;24596;48.080;8.362;2023-03-23T07:30:11;4.95;;;1.80;;
38843;SDS011;24596;48.080;8.362;2023-03-23T07:32:37;5.05;;;1.77;;
38843;SDS011;24596;48.080;8.362;2023-03-23T07:35:02;3.70;;;1.40;;
38843;SDS011;24596;48.080;8.362;2023-03-23T07:37:28;6.53;;;2.65;;
38843;SDS011;24596;48.080;8.362;2023-03-23T07:39:54;5.82;;;1.75;;
38843;SDS011;24596;48.080;8.362;2023-03-23T07:42:19;6.00;;;2.55;;
38843;SDS011;24596;48.080;8.362;2023-03-23T07:44:44;5.35;;;1.77;;
38843;SDS011;24596;48.080;8.362;2023-03-23T07:47:09;3.88;;;1.58;;
38843;SDS011;24596;48.080;8.362;2023-03-23T07:49:35;6.40;;;1.65;;
38843;SDS011;24596;48.080;8.362;2023-03-23T07:52:00;4.75;;;1.80;;
38843;SDS011;24596;48.080;8.362;2023-03-23T07:54:26;3.88;;;1.80;;
38843;SDS011;24596;48.080;8.362;2023-03-23T07:56:51;5.75;;;2.00;;
38843;SDS011;24596;48.080;8.362;2023-03-23T07:59:16;4.15;;;1.75;;
38843;SDS011;24596;48.080;8.362;2023-03-23T08:01:42;3.92;;;1.63;;
38843;SDS011;24596;48.080;8.362;2023-03-23T08:04:07;5.03;;;2.05;;
38843;SDS011;24596;48.080;8.362;2023-03-23T08:06:32;5.97;;;1.80;;
38843;SDS011;24596;48.080;8.362;2023-03-23T08:08:58;3.25;;;1.50;;
38843;SDS011;24596;48.080;8.362;2023-03-23T08:11:24;3.83;;;1.52;;
38843;SDS011;24596;48.080;8.362;2023-03-23T08:13:50;4.70;;;1.60;;
38843;SDS011;24596;48.080;8.362;2023-03-23T08:16:15;4.82;;;1.55;;
38843;SDS011;24596;48.080;8.362;2023-03-23T08:18:40;5.38;;;2.22;;
38843;SDS011;24596;48.080;8.362;2023-03-23T08:21:06;4.40;;;1.88;;
38843;SDS011;24596;48.080;8.362;2023-03-23T08:23:34;7.38;;;2.03;;
38843;SDS011;24596;48.080;8.362;2023-03-23T08:25:59;5.35;;;1.77;;
38843;SDS011;24596;48.080;8.362;2023-03-23T08:28:24;5.40;;;1.88;;
38843;SDS011;24596;48.080;8.362;2023-03-23T08:30:50;6.57;;;2.10;;
38843;SDS011;24596;48.080;8.362;2023-03-23T08:33:15;3.80;;;1.67;;
38843;SDS011;24596;48.080;8.362;2023-03-23T08:35:41;4.13;;;2.13;;
38843;SDS011;24596;48.080;8.362;2023-03-23T08:38:07;6.72;;;2.25;;
38843;SDS011;24596;48.080;8.362;2023-03-23T08:40:33;3.75;;;1.70;;
38843;SDS011;24596;48.080;8.362;2023-03-23T08:42:58;5.75;;;2.10;;
38843;SDS011;24596;48.080;8.362;2023-03-23T08:45:24;4.05;;;1.80;;
38843;SDS011;24596;48.080;8.362;2023-03-23T08:47:49;4.68;;;2.00;;
38843;SDS011;24596;48.080;8.362;2023-03-23T08:50:18;7.20;;;3.78;;
38843;SDS011;24596;48.080;8.362;2023-03-23T08:52:43;11.07;;;4.68;;
38843;SDS011;24596;48.080;8.362;2023-03-23T08:55:08;6.55;;;2.10;;
38843;SDS011;24596;48.080;8.362;2023-03-23T08:57:34;5.95;;;2.17;;
38843;SDS011;24596;48.080;8.362;2023-03-23T08:59:59;6.55;;;2.17;;
38843;SDS011;24596;48.080;8.362;2023-03-23T09:02:33;7.20;;;2.08;;
38843;SDS011;24596;48.080;8.362;2023-03-23T09:04:59;5.05;;;1.77;;
38843;SDS011;24596;48.080;8.362;2023-03-23T09:07:26;4.20;;;1.80;;
38843;SDS011;24596;48.080;8.362;2023-03-23T09:09:51;4.45;;;2.05;;
38843;SDS011;24596;48.080;8.362;2023-03-23T09:12:17;4.30;;;2.00;;
38843;SDS011;24596;48.080;8.362;2023-03-23T09:14:42;4.60;;;1.77;;
38843;SDS011;24596;48.080;8.362;2023-03-23T09:17:07;4.88;;;2.00;;
38843;SDS011;24596;48.080;8.362;2023-03-23T09:19:33;5.18;;;2.42;;
38843;SDS011;24596;48.080;8.362;2023-03-23T09:21:59;5.18;;;1.80;;
38843;SDS011;24596;48.080;8.362;2023-03-23T09:24:25;5.32;;;1.73;;
38843;SDS011;24596;48.080;8.362;2023-03-23T09:26:51;4.25;;;1.77;;
38843;SDS011;24596;48.080;8.362;2023-03-23T09:29:17;6.47;;;2.00;;
38843;SDS011;24596;48.080;8.362;2023-03-23T09:31:43;4.60;;;1.63;;
38843;SDS011;24596;48.080;8.362;2023-03-23T09:34:11;5.63;;;1.90;;
38843;SDS011;24596;48.080;8.362;2023-03-23T09:36:36;6.13;;;2.08;;
38843;SDS011;24596;48.080;8.362;2023-03-23T09:39:03;4.35;;;1.65;;
38843;SDS011;24596;48.080;8.362;2023-03-23T09:41:48;3.95;;;1.85;;
38843;SDS011;24596;48.080;8.362;2023-03-23T09:49:39;5.05;;;1.95;;
38843;SDS011;24596;48.080;8.362;2023-03-23T09:54:34;5.40;;;1.80;;
38843;SDS011;24596;48.080;8.362;2023-03-23T09:57:01;3.35;;;1.48;;
38843;SDS011;24596;48.080;8.362;2023-03-23T09:59:31;2.90;;;1.33;;
38843;SDS011;24596;48.080;8.362;2023-03-23T10:02:17;3.92;;;1.90;;
38843;SDS011;24596;48.080;8.362;2023-03-23T10:04:50;4.95;;;1.77;;
38843;SDS011;24596;48.080;8.362;2023-03-23T10:07:18;4.85;;;2.08;;
38843;SDS011;24596;48.080;8.362;2023-03-23T10:09:45;4.57;;;1.58;;
38843;SDS011;24596;48.080;8.362;2023-03-23T10:12:36;5.22;;;1.48;;
38843;SDS011;24596;48.080;8.362;2023-03-23T10:15:43;4.57;;;1.73;;
38843;SDS011;24596;48.080;8.362;2023-03-23T10:17:52;4.00;;;1.58;;
38843;SDS011;24596;48.080;8.362;2023-03-23T10:20:21;3.33;;;1.63;;
38843;SDS011;24596;48.080;8.362;2023-03-23T10:25:23;3.20;;;1.50;;
38843;SDS011;24596;48.080;8.362;2023-03-23T10:30:42;5.40;;;1.73;;
38843;SDS011;24596;48.080;8.362;2023-03-23T10:35:46;3.78;;;1.80;;
38843;SDS011;24596;48.080;8.362;2023-03-23T10:38:23;3.88;;;1.40;;
38843;SDS011;24596;48.080;8.362;2023-03-23T10:40:50;4.63;;;1.60;;
38843;SDS011;24596;48.080;8.362;2023-03-23T10:43:18;2.88;;;1.48;;
38843;SDS011;24596;48.080;8.362;2023-03-23T10:45:44;4.10;;;1.70;;
38843;SDS011;24596;48.080;8.362;2023-03-23T10:50:38;4.97;;;1.80;;
38843;SDS011;24596;48.080;8.362;2023-03-23T10:53:16;4.10;;;1.60;;
38843;SDS011;24596;48.080;8.362;2023-03-23T10:55:43;5.13;;;1.48;;
38843;SDS011;24596;48.080;8.362;2023-03-23T10:58:21;6.20;;;1.50;;
38843;SDS011;24596;48.080;8.362;2023-03-23T11:00:47;7.35;;;1.60;;
38843;SDS011;24596;48.080;8.362;2023-03-23T11:05:44;4.10;;;1.80;;
38843;SDS011;24596;48.080;8.362;2023-03-23T11:08:12;3.90;;;1.70;;
38843;SDS011;24596;48.080;8.362;2023-03-23T11:10:40;4.50;;;1.45;;
38843;SDS011;24596;48.080;8.362;2023-03-23T11:13:09;3.83;;;1.55;;
38843;SDS011;24596;48.080;8.362;2023-03-23T11:15:39;4.10;;;1.42;;
38843;SDS011;24596;48.080;8.362;2023-03-23T11:18:26;3.75;;;1.50;;
38843;SDS011;24596;48.080;8.362;2023-03-23T11:20:54;3.55;;;1.38;;
38843;SDS011;24596;48.080;8.362;2023-03-23T11:23:28;4.15;;;1.52;;
38843;SDS011;24596;48.080;8.362;2023-03-23T11:28:19;3.28;;;1.52;;
38843;SDS011;24596;48.080;8.362;2023-03-23T11:30:45;4.00;;;1.60;;
38843;SDS011;24596;48.080;8.362;2023-03-23T11:33:11;6.95;;;1.50;;
38843;SDS011;24596;48.080;8.362;2023-03-23T11:35:37;2.92;;;1.38;;
38843;SDS011;24596;48.080;8.362;2023-03-23T11:38:02;4.85;;;1.42;;
38843;SDS011;24596;48.080;8.362;2023-03-23T11:40:30;4.15;;;1.40;;
38843;SDS011;24596;48.080;8.362;2023-03-23T11:43:00;3.85;;;1.50;;
38843;SDS011;24596;48.080;8.362;2023-03-23T11:45:36;3.95;;;1.30;;
38843;SDS011;24596;48.080;8.362;2023-03-23T11:50:50;4.45;;;1.73;;
38843;SDS011;24596;48.080;8.362;2023-03-23T11:53:20;2.58;;;1.40;;
38843;SDS011;24596;48.080;8.362;2023-03-23T11:58:22;3.15;;;1.35;;
38843;SDS011;24596;48.080;8.362;2023-03-23T12:06:06;6.03;;;1.63;;
38843;SDS011;24596;48.080;8.362;2023-03-23T12:08:42;5.03;;;1.60;;
38843;SDS011;24596;48.080;8.362;2023-03-23T12:13:54;4.68;;;1.35;;
38843;SDS011;24596;48.080;8.362;2023-03-23T12:19:12;5.10;;;1.67;;
38843;SDS011;24596;48.080;8.362;2023-03-23T12:21:46;4.32;;;1.80;;
38843;SDS011;24596;48.080;8.362;2023-03-23T12:24:29;4.38;;;1.73;;
38843;SDS011;24596;48.080;8.362;2023-03-23T12:29:29;4.10;;;1.40;;
38843;SDS011;24596;48.080;8.362;2023-03-23T12:42:37;4.38;;;1.63;;
38843;SDS011;24596;48.080;8.362;2023-03-23T12:47:54;4.40;;;1.75;;
38843;SDS011;24596;48.080;8.362;2023-03-23T12:51:24;5.05;;;2.05;;
38843;SDS011;24596;48.080;8.362;2023-03-23T12:53:19;4.32;;;1.73;;
38843;SDS011;24596;48.080;8.362;2023-03-23T12:55:47;3.42;;;1.77;;
38843;SDS011;24596;48.080;8.362;2023-03-23T12:58:19;4.50;;;1.73;;
38843;SDS011;24596;48.080;8.362;2023-03-23T13:01:05;4.70;;;2.23;;
38843;SDS011;24596;48.080;8.362;2023-03-23T13:06:39;4.72;;;1.75;;
38843;SDS011;24596;48.080;8.362;2023-03-23T13:16:52;5.28;;;1.90;;
38843;SDS011;24596;48.080;8.362;2023-03-23T13:24:30;4.72;;;1.80;;
38843;SDS011;24596;48.080;8.362;2023-03-23T13:26:56;4.60;;;2.13;;
38843;SDS011;24596;48.080;8.362;2023-03-23T13:29:26;4.30;;;1.90;;
38843;SDS011;24596;48.080;8.362;2023-03-23T13:31:52;6.63;;;2.00;;
38843;SDS011;24596;48.080;8.362;2023-03-23T13:34:29;7.10;;;2.30;;
38843;SDS011;24596;48.080;8.362;2023-03-23T13:36:56;4.00;;;1.80;;
38843;SDS011;24596;48.080;8.362;2023-03-23T13:39:23;6.05;;;2.13;;
38843;SDS011;24596;48.080;8.362;2023-03-23T13:42:34;4.25;;;1.75;;
38843;SDS011;24596;48.080;8.362;2023-03-23T13:49:48;4.97;;;1.90;;
38843;SDS011;24596;48.080;8.362;2023-03-23T13:52:22;6.55;;;2.03;;
38843;SDS011;24596;48.080;8.362;2023-03-23T13:54:48;4.68;;;2.17;;
38843;SDS011;24596;48.080;8.362;2023-03-23T13:59:58;5.18;;;2.08;;
38843;SDS011;24596;48.080;8.362;2023-03-23T14:02:34;4.05;;;2.08;;
38843;SDS011;24596;48.080;8.362;2023-03-23T14:07:58;5.47;;;2.05;;
38843;SDS011;24596;48.080;8.362;2023-03-23T14:10:25;6.25;;;1.98;;
38843;SDS011;24596;48.080;8.362;2023-03-23T14:12:52;6.10;;;2.15;;
38843;SDS011;24596;48.080;8.362;2023-03-23T14:15:18;13.48;;;2.70;;
38843;SDS011;24596;48.080;8.362;2023-03-23T14:17:44;4.72;;;1.90;;
38843;SDS011;24596;48.080;8.362;2023-03-23T14:20:17;9.68;;;2.40;;
38843;SDS011;24596;48.080;8.362;2023-03-23T14:22:45;3.78;;;1.65;;
38843;SDS011;24596;48.080;8.362;2023-03-23T14:25:17;3.75;;;1.80;;
38843;SDS011;24596;48.080;8.362;2023-03-23T14:27:43;4.20;;;1.90;;
38843;SDS011;24596;48.080;8.362;2023-03-23T14:30:12;6.20;;;1.85;;
38843;SDS011;24596;48.080;8.362;2023-03-23T14:32:38;5.53;;;2.22;;
38843;SDS011;24596;48.080;8.362;2023-03-23T14:35:05;6.72;;;2.00;;
38843;SDS011;24596;48.080;8.362;2023-03-23T14:37:31;6.00;;;2.13;;
38843;SDS011;24596;48.080;8.362;2023-03-23T14:39:57;5.03;;;2.17;;
38843;SDS011;24596;48.080;8.362;2023-03-23T14:42:28;5.82;;;1.90;;
38843;SDS011;24596;48.080;8.362;2023-03-23T14:44:53;7.65;;;2.30;;
38843;SDS011;24596;48.080;8.362;2023-03-23T14:47:23;5.28;;;1.98;;
38843;SDS011;24596;48.080;8.362;2023-03-23T14:49:52;5.25;;;2.10;;
38843;SDS011;24596;48.080;8.362;2023-03-23T14:52:18;6.88;;;2.03;;
38843;SDS011;24596;48.080;8.362;2023-03-23T14:54:44;6.30;;;2.28;;
38843;SDS011;24596;48.080;8.362;2023-03-23T14:57:13;6.25;;;2.00;;
38843;SDS011;24596;48.080;8.362;2023-03-23T14:59:42;3.78;;;1.88;;
38843;SDS011;24596;48.080;8.362;2023-03-23T15:02:10;5.75;;;2.22;;
38843;SDS011;24596;48.080;8.362;2023-03-23T15:04:36;5.32;;;1.90;;
38843;SDS011;24596;48.080;8.362;2023-03-23T15:07:03;5.75;;;2.28;;
38843;SDS011;24596;48.080;8.362;2023-03-23T15:09:29;4.90;;;2.10;;
38843;SDS011;24596;48.080;8.362;2023-03-23T15:11:59;6.45;;;2.28;;
38843;SDS011;24596;48.080;8.362;2023-03-23T15:14:32;7.20;;;2.15;;
38843;SDS011;24596;48.080;8.362;2023-03-23T15:17:00;6.95;;;2.10;;
38843;SDS011;24596;48.080;8.362;2023-03-23T15:19:36;6.10;;;1.70;;
38843;SDS011;24596;48.080;8.362;2023-03-23T15:24:42;8.48;;;3.53;;
38843;SDS011;24596;48.080;8.362;2023-03-23T15:27:15;4.38;;;1.92;;
38843;SDS011;24596;48.080;8.362;2023-03-23T15:30:12;6.75;;;2.65;;
38843;SDS011;24596;48.080;8.362;2023-03-23T15:32:30;10.20;;;2.65;;
38843;SDS011;24596;48.080;8.362;2023-03-23T15:34:56;5.25;;;2.00;;
38843;SDS011;24596;48.080;8.362;2023-03-23T15:37:32;4.22;;;2.10;;
38843;SDS011;24596;48.080;8.362;2023-03-23T15:39:58;5.20;;;1.98;;
38843;SDS011;24596;48.080;8.362;2023-03-23T15:42:28;5.03;;;1.77;;
38843;SDS011;24596;48.080;8.362;2023-03-23T15:44:57;5.25;;;1.80;;
38843;SDS011;24596;48.080;8.362;2023-03-23T15:47:32;5.28;;;1.80;;
38843;SDS011;24596;48.080;8.362;2023-03-23T15:50:01;5.00;;;1.67;;
38843;SDS011;24596;48.080;8.362;2023-03-23T15:52:27;7.25;;;2.45;;
38843;SDS011;24596;48.080;8.362;2023-03-23T15:54:53;6.47;;;2.00;;
38843;SDS011;24596;48.080;8.362;2023-03-23T15:57:18;6.15;;;1.75;;
38843;SDS011;24596;48.080;8.362;2023-03-23T15:59:44;5.60;;;2.22;;
38843;SDS011;24596;48.080;8.362;2023-03-23T16:02:17;5.93;;;2.10;;
38843;SDS011;24596;48.080;8.362;2023-03-23T16:04:43;4.68;;;2.10;;
38843;SDS011;24596;48.080;8.362;2023-03-23T16:07:08;6.15;;;2.30;;
38843;SDS011;24596;48.080;8.362;2023-03-23T16:09:37;5.10;;;2.20;;
38843;SDS011;24596;48.080;8.362;2023-03-23T16:12:03;5.18;;;2.08;;
38843;SDS011;24596;48.080;8.362;2023-03-23T16:14:29;5.55;;;2.22;;
38843;SDS011;24596;48.080;8.362;2023-03-23T16:16:54;4.75;;;1.95;;
38843;SDS011;24596;48.080;8.362;2023-03-23T16:19:19;4.45;;;1.80;;
38843;SDS011;24596;48.080;8.362;2023-03-23T16:21:48;5.97;;;2.38;;
38843;SDS011;24596;48.080;8.362;2023-03-23T16:24:13;6.25;;;2.47;;
38843;SDS011;24596;48.080;8.362;2023-03-23T16:26:38;7.93;;;2.33;;
38843;SDS011;24596;48.080;8.362;2023-03-23T16:29:09;4.85;;;2.10;;
38843;SDS011;24596;48.080;8.362;2023-03-23T16:31:35;4.68;;;2.30;;
38843;SDS011;24596;48.080;8.362;2023-03-23T16:34:00;4.38;;;1.95;;
38843;SDS011;24596;48.080;8.362;2023-03-23T16:36:25;5.28;;;2.15;;